sensor_id;sensor_type;location;lat;lon;timestamp;P1;durP1;ratioP1;P2;durP2;ratioP2
34019;SDS011;20895;51.034;3.742;2022-09-20T00:00:49;9.60;;;3.25;;
34019;SDS011;20895;51.034;3.742;2022-09-20T00:03:15;10.50;;;3.30;;
34019;SDS011;20895;51.034;3.742;2022-09-20T00:05:41;6.32;;;2.88;;
34019;SDS011;20895;51.034;3.742;2022-09-20T00:08:11;7.00;;;3.28;;
34019;SDS011;20895;51.034;3.742;2022-09-20T00:10:36;6.40;;;3.40;;
34019;SDS011;20895;51.034;3.742;2022-09-20T00:13:03;13.13;;;3.90;;
34019;SDS011;20895;51.034;3.742;2022-09-20T00:15:28;7.05;;;3.20;;
34019;SDS011;20895;51.034;3.742;2022-09-20T00:17:54;10.80;;;3.75;;
34019;SDS011;20895;51.034;3.742;2022-09-20T00:20:19;7.50;;;3.30;;
34019;SDS011;20895;51.034;3.742;2022-09-20T00:22:44;14.43;;;3.35;;
34019;SDS011;20895;51.034;3.742;2022-09-20T00:25:13;6.68;;;3.40;;
34019;SDS011;20895;51.034;3.742;2022-09-20T00:27:39;8.10;;;3.17;;
34019;SDS011;20895;51.034;3.742;2022-09-20T00:30:04;8.52;;;3.47;;
34019;SDS011;20895;51.034;3.742;2022-09-20T00:32:30;14.52;;;3.78;;
34019;SDS011;20895;51.034;3.742;2022-09-20T00:34:55;5.95;;;3.35;;
34019;SDS011;20895;51.034;3.742;2022-09-20T00:37:34;8.57;;;4.63;;
34019;SDS011;20895;51.034;3.742;2022-09-20T00:39:59;16.27;;;4.10;;
34019;SDS011;20895;51.034;3.742;2022-09-20T00:42:26;13.18;;;5.63;;
34019;SDS011;20895;51.034;3.742;2022-09-20T00:44:56;7.70;;;3.75;;
34019;SDS011;20895;51.034;3.742;2022-09-20T00:47:38;6.93;;;3.75;;
34019;SDS011;20895;51.034;3.742;2022-09-20T00:52:51;12.07;;;4.00;;
34019;SDS011;20895;51.034;3.742;2022-09-20T00:55:18;7.13;;;3.92;;
34019;SDS011;20895;51.034;3.742;2022-09-20T00:57:44;10.30;;;4.20;;
34019;SDS011;20895;51.034;3.742;2022-09-20T01:00:10;10.40;;;5.55;;
34019;SDS011;20895;51.034;3.742;2022-09-20T01:02:36;13.68;;;5.18;;
34019;SDS011;20895;51.034;3.742;2022-09-20T01:05:03;11.50;;;5.00;;
34019;SDS011;20895;51.034;3.742;2022-09-20T01:07:29;11.48;;;4.75;;
34019;SDS011;20895;51.034;3.742;2022-09-20T01:09:54;11.48;;;4.88;;
34019;SDS011;20895;51.034;3.742;2022-09-20T01:12:22;12.50;;;5.18;;
34019;SDS011;20895;51.034;3.742;2022-09-20T01:14:49;11.88;;;5.57;;
34019;SDS011;20895;51.034;3.742;2022-09-20T01:17:15;9.50;;;6.00;;
34019;SDS011;20895;51.034;3.742;2022-09-20T01:19:51;11.07;;;4.88;;
34019;SDS011;20895;51.034;3.742;2022-09-20T01:22:24;12.20;;;5.18;;
34019;SDS011;20895;51.034;3.742;2022-09-20T01:25:10;9.32;;;4.90;;
34019;SDS011;20895;51.034;3.742;2022-09-20T01:27:45;13.57;;;6.15;;
34019;SDS011;20895;51.034;3.742;2022-09-20T01:30:15;8.80;;;5.07;;
34019;SDS011;20895;51.034;3.742;2022-09-20T01:35:16;11.10;;;5.20;;
34019;SDS011;20895;51.034;3.742;2022-09-20T01:45:36;9.85;;;5.78;;
34019;SDS011;20895;51.034;3.742;2022-09-20T01:48:08;14.80;;;5.28;;
34019;SDS011;20895;51.034;3.742;2022-09-20T01:50:51;10.50;;;5.20;;
34019;SDS011;20895;51.034;3.742;2022-09-20T02:11:21;9.80;;;4.97;;
34019;SDS011;20895;51.034;3.742;2022-09-20T02:19:23;9.30;;;4.28;;
34019;SDS011;20895;51.034;3.742;2022-09-20T02:42:16;7.78;;;5.13;;
34019;SDS011;20895;51.034;3.742;2022-09-20T02:44:45;13.73;;;5.68;;
34019;SDS011;20895;51.034;3.742;2022-09-20T02:49:58;14.45;;;5.32;;
34019;SDS011;20895;51.034;3.742;2022-09-20T03:00:09;10.93;;;5.55;;
34019;SDS011;20895;51.034;3.742;2022-09-20T03:02:53;9.80;;;6.00;;
34019;SDS011;20895;51.034;3.742;2022-09-20T03:05:29;9.85;;;5.13;;
34019;SDS011;20895;51.034;3.742;2022-09-20T03:18:37;12.05;;;5.88;;
34019;SDS011;20895;51.034;3.742;2022-09-20T03:29:04;13.32;;;5.30;;
34019;SDS011;20895;51.034;3.742;2022-09-20T03:47:09;11.02;;;5.43;;
34019;SDS011;20895;51.034;3.742;2022-09-20T03:53:12;13.10;;;6.00;;
34019;SDS011;20895;51.034;3.742;2022-09-20T03:58:07;11.63;;;5.63;;
34019;SDS011;20895;51.034;3.742;2022-09-20T04:13:57;9.27;;;5.47;;
34019;SDS011;20895;51.034;3.742;2022-09-20T04:16:34;10.75;;;6.18;;
34019;SDS011;20895;51.034;3.742;2022-09-20T04:22:04;10.82;;;5.55;;
34019;SDS011;20895;51.034;3.742;2022-09-20T04:27:04;7.80;;;5.82;;
34019;SDS011;20895;51.034;3.742;2022-09-20T04:32:15;10.48;;;6.25;;
34019;SDS011;20895;51.034;3.742;2022-09-20T04:34:45;10.65;;;6.05;;
34019;SDS011;20895;51.034;3.742;2022-09-20T04:37:35;13.43;;;6.25;;
34019;SDS011;20895;51.034;3.742;2022-09-20T04:40:22;11.90;;;5.95;;
34019;SDS011;20895;51.034;3.742;2022-09-20T04:45:29;12.95;;;5.93;;
34019;SDS011;20895;51.034;3.742;2022-09-20T04:48:19;12.63;;;6.68;;
34019;SDS011;20895;51.034;3.742;2022-09-20T04:56:02;10.32;;;6.65;;
34019;SDS011;20895;51.034;3.742;2022-09-20T05:08:31;11.27;;;6.82;;
34019;SDS011;20895;51.034;3.742;2022-09-20T05:17:13;17.85;;;14.30;;
34019;SDS011;20895;51.034;3.742;2022-09-20T05:19:21;23.30;;;20.75;;
34019;SDS011;20895;51.034;3.742;2022-09-20T05:22:06;27.52;;;24.60;;
34019;SDS011;20895;51.034;3.742;2022-09-20T05:34:47;14.65;;;7.65;;
34019;SDS011;20895;51.034;3.742;2022-09-20T05:40:34;18.05;;;9.98;;
34019;SDS011;20895;51.034;3.742;2022-09-20T05:42:40;16.30;;;11.25;;
34019;SDS011;20895;51.034;3.742;2022-09-20T05:51:04;20.52;;;9.20;;
34019;SDS011;20895;51.034;3.742;2022-09-20T06:09:25;15.32;;;8.52;;
34019;SDS011;20895;51.034;3.742;2022-09-20T06:14:31;24.05;;;7.75;;
34019;SDS011;20895;51.034;3.742;2022-09-20T06:19:44;17.33;;;8.48;;
34019;SDS011;20895;51.034;3.742;2022-09-20T06:22:18;10.23;;;7.18;;
34019;SDS011;20895;51.034;3.742;2022-09-20T06:27:24;11.82;;;7.32;;
34019;SDS011;20895;51.034;3.742;2022-09-20T06:30:00;12.80;;;7.13;;
34019;SDS011;20895;51.034;3.742;2022-09-20T06:32:26;14.60;;;7.95;;
34019;SDS011;20895;51.034;3.742;2022-09-20T06:34:52;17.70;;;7.88;;
34019;SDS011;20895;51.034;3.742;2022-09-20T06:37:38;20.50;;;10.38;;
34019;SDS011;20895;51.034;3.742;2022-09-20T06:43:08;13.05;;;7.43;;
34019;SDS011;20895;51.034;3.742;2022-09-20T06:45:38;11.40;;;6.95;;
34019;SDS011;20895;51.034;3.742;2022-09-20T06:48:04;12.88;;;7.13;;
34019;SDS011;20895;51.034;3.742;2022-09-20T06:50:29;12.10;;;8.15;;
34019;SDS011;20895;51.034;3.742;2022-09-20T06:52:56;14.43;;;7.03;;
34019;SDS011;20895;51.034;3.742;2022-09-20T06:55:24;13.77;;;6.57;;
34019;SDS011;20895;51.034;3.742;2022-09-20T06:57:52;14.65;;;6.68;;
34019;SDS011;20895;51.034;3.742;2022-09-20T07:00:17;11.35;;;7.30;;
34019;SDS011;20895;51.034;3.742;2022-09-20T07:02:43;10.20;;;6.32;;
34019;SDS011;20895;51.034;3.742;2022-09-20T07:05:15;11.77;;;5.88;;
34019;SDS011;20895;51.034;3.742;2022-09-20T07:07:41;12.98;;;6.72;;
34019;SDS011;20895;51.034;3.742;2022-09-20T07:10:08;10.02;;;5.38;;
34019;SDS011;20895;51.034;3.742;2022-09-20T07:12:33;12.18;;;6.80;;
34019;SDS011;20895;51.034;3.742;2022-09-20T07:14:59;11.43;;;5.40;;
34019;SDS011;20895;51.034;3.742;2022-09-20T07:17:24;12.65;;;6.82;;
34019;SDS011;20895;51.034;3.742;2022-09-20T07:19:49;12.85;;;4.50;;
34019;SDS011;20895;51.034;3.742;2022-09-20T07:22:15;11.10;;;4.65;;
34019;SDS011;20895;51.034;3.742;2022-09-20T07:24:40;13.02;;;4.75;;
34019;SDS011;20895;51.034;3.742;2022-09-20T07:27:06;14.20;;;6.03;;
34019;SDS011;20895;51.034;3.742;2022-09-20T07:29:31;11.93;;;4.85;;
34019;SDS011;20895;51.034;3.742;2022-09-20T07:31:59;12.85;;;5.22;;
34019;SDS011;20895;51.034;3.742;2022-09-20T07:34:24;8.93;;;4.35;;
34019;SDS011;20895;51.034;3.742;2022-09-20T07:36:51;7.40;;;3.75;;
34019;SDS011;20895;51.034;3.742;2022-09-20T07:39:16;12.82;;;4.50;;
34019;SDS011;20895;51.034;3.742;2022-09-20T07:41:41;7.35;;;4.30;;
34019;SDS011;20895;51.034;3.742;2022-09-20T07:44:10;8.65;;;4.05;;
34019;SDS011;20895;51.034;3.742;2022-09-20T07:46:46;10.07;;;3.35;;
34019;SDS011;20895;51.034;3.742;2022-09-20T07:49:12;5.80;;;3.50;;
34019;SDS011;20895;51.034;3.742;2022-09-20T07:51:37;12.38;;;4.05;;
34019;SDS011;20895;51.034;3.742;2022-09-20T07:54:03;10.68;;;3.30;;
34019;SDS011;20895;51.034;3.742;2022-09-20T07:56:28;9.15;;;3.63;;
34019;SDS011;20895;51.034;3.742;2022-09-20T07:58:53;8.50;;;3.33;;
34019;SDS011;20895;51.034;3.742;2022-09-20T08:01:18;4.80;;;2.50;;
34019;SDS011;20895;51.034;3.742;2022-09-20T08:03:46;5.65;;;2.70;;
34019;SDS011;20895;51.034;3.742;2022-09-20T08:06:11;7.18;;;2.65;;
34019;SDS011;20895;51.034;3.742;2022-09-20T08:08:40;4.32;;;1.42;;
34019;SDS011;20895;51.034;3.742;2022-09-20T08:11:07;7.18;;;1.77;;
34019;SDS011;20895;51.034;3.742;2022-09-20T08:13:36;2.97;;;1.08;;
34019;SDS011;20895;51.034;3.742;2022-09-20T08:16:03;4.82;;;1.00;;
34019;SDS011;20895;51.034;3.742;2022-09-20T08:18:29;3.17;;;0.98;;
34019;SDS011;20895;51.034;3.742;2022-09-20T08:20:55;5.35;;;0.90;;
34019;SDS011;20895;51.034;3.742;2022-09-20T08:23:20;2.83;;;1.00;;
34019;SDS011;20895;51.034;3.742;2022-09-20T08:25:46;3.28;;;1.20;;
34019;SDS011;20895;51.034;3.742;2022-09-20T08:28:12;3.80;;;1.10;;
34019;SDS011;20895;51.034;3.742;2022-09-20T08:30:37;4.80;;;1.35;;
34019;SDS011;20895;51.034;3.742;2022-09-20T08:33:03;5.50;;;1.10;;
34019;SDS011;20895;51.034;3.742;2022-09-20T08:35:28;5.15;;;1.10;;
34019;SDS011;20895;51.034;3.742;2022-09-20T08:37:54;3.28;;;1.45;;
34019;SDS011;20895;51.034;3.742;2022-09-20T08:40:20;3.40;;;1.42;;
34019;SDS011;20895;51.034;3.742;2022-09-20T08:42:48;3.85;;;1.58;;
34019;SDS011;20895;51.034;3.742;2022-09-20T08:45:14;4.93;;;1.95;;
34019;SDS011;20895;51.034;3.742;2022-09-20T08:47:51;8.13;;;3.05;;
34019;SDS011;20895;51.034;3.742;2022-09-20T08:50:17;4.68;;;1.92;;
34019;SDS011;20895;51.034;3.742;2022-09-20T08:52:44;6.82;;;1.60;;
34019;SDS011;20895;51.034;3.742;2022-09-20T08:55:16;2.38;;;1.17;;
34019;SDS011;20895;51.034;3.742;2022-09-20T08:57:41;3.28;;;1.13;;
34019;SDS011;20895;51.034;3.742;2022-09-20T09:00:14;5.80;;;1.23;;
34019;SDS011;20895;51.034;3.742;2022-09-20T09:02:41;7.75;;;1.50;;
34019;SDS011;20895;51.034;3.742;2022-09-20T09:05:12;5.30;;;1.23;;
34019;SDS011;20895;51.034;3.742;2022-09-20T09:07:41;4.72;;;2.25;;
34019;SDS011;20895;51.034;3.742;2022-09-20T09:10:07;6.07;;;2.15;;
34019;SDS011;20895;51.034;3.742;2022-09-20T09:12:33;7.10;;;1.35;;
34019;SDS011;20895;51.034;3.742;2022-09-20T09:15:03;5.53;;;1.65;;
34019;SDS011;20895;51.034;3.742;2022-09-20T09:17:30;11.38;;;1.35;;
34019;SDS011;20895;51.034;3.742;2022-09-20T09:19:56;8.93;;;1.88;;
34019;SDS011;20895;51.034;3.742;2022-09-20T09:25:18;4.60;;;1.70;;
34019;SDS011;20895;51.034;3.742;2022-09-20T09:27:58;7.40;;;1.63;;
34019;SDS011;20895;51.034;3.742;2022-09-20T09:30:27;8.18;;;2.15;;
34019;SDS011;20895;51.034;3.742;2022-09-20T09:33:14;10.55;;;2.00;;
34019;SDS011;20895;51.034;3.742;2022-09-20T09:35:39;3.90;;;1.10;;
34019;SDS011;20895;51.034;3.742;2022-09-20T09:38:04;5.05;;;1.25;;
34019;SDS011;20895;51.034;3.742;2022-09-20T09:40:30;7.05;;;1.30;;
34019;SDS011;20895;51.034;3.742;2022-09-20T09:42:59;2.35;;;0.98;;
34019;SDS011;20895;51.034;3.742;2022-09-20T09:45:29;6.18;;;1.00;;
34019;SDS011;20895;51.034;3.742;2022-09-20T09:47:55;3.83;;;1.17;;
34019;SDS011;20895;51.034;3.742;2022-09-20T09:50:22;7.80;;;1.75;;
34019;SDS011;20895;51.034;3.742;2022-09-20T09:53:30;5.82;;;1.38;;
34019;SDS011;20895;51.034;3.742;2022-09-20T09:58:18;7.25;;;1.80;;
34019;SDS011;20895;51.034;3.742;2022-09-20T10:00:46;3.97;;;1.25;;
34019;SDS011;20895;51.034;3.742;2022-09-20T10:14:09;6.80;;;1.33;;
34019;SDS011;20895;51.034;3.742;2022-09-20T10:20:12;5.25;;;1.15;;
34019;SDS011;20895;51.034;3.742;2022-09-20T10:25:06;5.38;;;1.40;;
34019;SDS011;20895;51.034;3.742;2022-09-20T10:30:02;5.97;;;1.50;;
34019;SDS011;20895;51.034;3.742;2022-09-20T10:32:46;6.00;;;1.80;;
34019;SDS011;20895;51.034;3.742;2022-09-20T10:40:59;6.47;;;2.28;;
34019;SDS011;20895;51.034;3.742;2022-09-20T10:43:56;4.63;;;1.50;;
34019;SDS011;20895;51.034;3.742;2022-09-20T10:46:44;8.02;;;2.00;;
34019;SDS011;20895;51.034;3.742;2022-09-20T10:51:50;6.93;;;1.75;;
34019;SDS011;20895;51.034;3.742;2022-09-20T10:54:28;4.78;;;1.30;;
34019;SDS011;20895;51.034;3.742;2022-09-20T10:57:10;6.93;;;1.73;;
34019;SDS011;20895;51.034;3.742;2022-09-20T11:05:05;9.57;;;1.88;;
34019;SDS011;20895;51.034;3.742;2022-09-20T11:10:01;4.93;;;1.55;;
34019;SDS011;20895;51.034;3.742;2022-09-20T11:12:36;4.60;;;1.55;;
34019;SDS011;20895;51.034;3.742;2022-09-20T11:15:18;8.73;;;1.80;;
34019;SDS011;20895;51.034;3.742;2022-09-20T11:20:41;4.32;;;1.40;;
34019;SDS011;20895;51.034;3.742;2022-09-20T11:25:38;2.97;;;0.90;;
34019;SDS011;20895;51.034;3.742;2022-09-20T11:30:33;1.00;;;0.50;;
34019;SDS011;20895;51.034;3.742;2022-09-20T11:35:39;3.08;;;0.63;;
34019;SDS011;20895;51.034;3.742;2022-09-20T11:40:39;1.55;;;0.80;;
34019;SDS011;20895;51.034;3.742;2022-09-20T11:43:07;1.85;;;0.90;;
34019;SDS011;20895;51.034;3.742;2022-09-20T11:45:33;3.53;;;1.00;;
34019;SDS011;20895;51.034;3.742;2022-09-20T11:48:01;6.38;;;0.75;;
34019;SDS011;20895;51.034;3.742;2022-09-20T11:58:16;3.67;;;0.90;;
34019;SDS011;20895;51.034;3.742;2022-09-20T12:00:45;5.00;;;0.93;;
34019;SDS011;20895;51.034;3.742;2022-09-20T12:06:05;2.95;;;0.85;;
34019;SDS011;20895;51.034;3.742;2022-09-20T12:08:34;2.08;;;0.80;;
34019;SDS011;20895;51.034;3.742;2022-09-20T12:11:02;1.73;;;0.70;;
34019;SDS011;20895;51.034;3.742;2022-09-20T12:13:29;1.42;;;0.60;;
34019;SDS011;20895;51.034;3.742;2022-09-20T12:16:06;3.63;;;0.80;;
34019;SDS011;20895;51.034;3.742;2022-09-20T12:18:35;0.98;;;0.50;;
34019;SDS011;20895;51.034;3.742;2022-09-20T12:21:09;2.17;;;0.68;;
34019;SDS011;20895;51.034;3.742;2022-09-20T12:26:10;1.92;;;0.70;;
34019;SDS011;20895;51.034;3.742;2022-09-20T12:28:41;1.92;;;0.82;;
34019;SDS011;20895;51.034;3.742;2022-09-20T12:37:21;2.78;;;0.82;;
34019;SDS011;20895;51.034;3.742;2022-09-20T12:44:22;4.63;;;1.20;;
34019;SDS011;20895;51.034;3.742;2022-09-20T12:46:53;5.72;;;1.38;;
34019;SDS011;20895;51.034;3.742;2022-09-20T12:49:26;3.65;;;1.80;;
34019;SDS011;20895;51.034;3.742;2022-09-20T12:57:55;3.95;;;1.40;;
34019;SDS011;20895;51.034;3.742;2022-09-20T13:00:29;1.88;;;1.00;;
34019;SDS011;20895;51.034;3.742;2022-09-20T13:02:58;2.95;;;1.10;;
34019;SDS011;20895;51.034;3.742;2022-09-20T13:05:34;2.28;;;0.90;;
34019;SDS011;20895;51.034;3.742;2022-09-20T13:21:40;2.35;;;0.75;;
34019;SDS011;20895;51.034;3.742;2022-09-20T13:24:06;8.85;;;1.00;;
34019;SDS011;20895;51.034;3.742;2022-09-20T13:26:38;4.88;;;0.80;;
34019;SDS011;20895;51.034;3.742;2022-09-20T13:29:04;3.70;;;1.08;;
34019;SDS011;20895;51.034;3.742;2022-09-20T13:31:31;4.80;;;0.80;;
34019;SDS011;20895;51.034;3.742;2022-09-20T13:36:41;4.57;;;0.98;;
34019;SDS011;20895;51.034;3.742;2022-09-20T13:39:07;2.55;;;1.05;;
34019;SDS011;20895;51.034;3.742;2022-09-20T13:41:32;4.40;;;1.23;;
34019;SDS011;20895;51.034;3.742;2022-09-20T13:43:59;6.05;;;1.40;;
34019;SDS011;20895;51.034;3.742;2022-09-20T13:46:29;4.55;;;2.22;;
34019;SDS011;20895;51.034;3.742;2022-09-20T13:51:24;5.93;;;1.20;;
34019;SDS011;20895;51.034;3.742;2022-09-20T13:53:50;4.35;;;0.80;;
34019;SDS011;20895;51.034;3.742;2022-09-20T13:56:26;9.82;;;1.58;;
34019;SDS011;20895;51.034;3.742;2022-09-20T13:58:52;3.47;;;1.10;;
34019;SDS011;20895;51.034;3.742;2022-09-20T14:01:28;2.85;;;1.08;;
34019;SDS011;20895;51.034;3.742;2022-09-20T14:03:56;6.63;;;1.33;;
34019;SDS011;20895;51.034;3.742;2022-09-20T14:06:24;4.40;;;0.80;;
34019;SDS011;20895;51.034;3.742;2022-09-20T14:08:53;1.90;;;0.90;;
34019;SDS011;20895;51.034;3.742;2022-09-20T14:11:25;5.70;;;1.23;;
34019;SDS011;20895;51.034;3.742;2022-09-20T14:13:52;2.70;;;0.93;;
34019;SDS011;20895;51.034;3.742;2022-09-20T14:16:19;1.88;;;0.85;;
34019;SDS011;20895;51.034;3.742;2022-09-20T14:18:45;4.40;;;0.80;;
34019;SDS011;20895;51.034;3.742;2022-09-20T14:21:12;3.65;;;1.17;;
34019;SDS011;20895;51.034;3.742;2022-09-20T14:23:54;3.85;;;1.10;;
34019;SDS011;20895;51.034;3.742;2022-09-20T14:26:26;2.55;;;0.85;;
34019;SDS011;20895;51.034;3.742;2022-09-20T14:28:52;4.45;;;0.90;;
34019;SDS011;20895;51.034;3.742;2022-09-20T14:31:22;2.25;;;0.90;;
34019;SDS011;20895;51.034;3.742;2022-09-20T14:33:49;4.53;;;1.20;;
34019;SDS011;20895;51.034;3.742;2022-09-20T14:36:20;2.03;;;0.70;;
34019;SDS011;20895;51.034;3.742;2022-09-20T14:38:46;2.53;;;0.60;;
34019;SDS011;20895;51.034;3.742;2022-09-20T14:41:12;1.60;;;0.70;;
34019;SDS011;20895;51.034;3.742;2022-09-20T14:43:38;2.05;;;0.77;;
34019;SDS011;20895;51.034;3.742;2022-09-20T14:46:05;3.83;;;0.82;;
34019;SDS011;20895;51.034;3.742;2022-09-20T14:48:36;4.03;;;0.80;;
34019;SDS011;20895;51.034;3.742;2022-09-20T14:53:40;2.15;;;0.85;;
34019;SDS011;20895;51.034;3.742;2022-09-20T14:58:31;4.53;;;0.93;;
34019;SDS011;20895;51.034;3.742;2022-09-20T15:01:00;5.72;;;1.08;;
34019;SDS011;20895;51.034;3.742;2022-09-20T15:03:33;3.17;;;0.85;;
34019;SDS011;20895;51.034;3.742;2022-09-20T15:05:58;4.38;;;1.17;;
34019;SDS011;20895;51.034;3.742;2022-09-20T15:08:24;2.35;;;0.70;;
34019;SDS011;20895;51.034;3.742;2022-09-20T15:10:49;3.90;;;1.70;;
34019;SDS011;20895;51.034;3.742;2022-09-20T15:13:14;4.90;;;1.02;;
34019;SDS011;20895;51.034;3.742;2022-09-20T15:15:40;2.10;;;0.95;;
34019;SDS011;20895;51.034;3.742;2022-09-20T15:18:30;3.50;;;1.17;;
34019;SDS011;20895;51.034;3.742;2022-09-20T15:20:53;3.53;;;1.10;;
34019;SDS011;20895;51.034;3.742;2022-09-20T15:23:19;3.55;;;0.98;;
34019;SDS011;20895;51.034;3.742;2022-09-20T15:25:44;2.17;;;0.93;;
34019;SDS011;20895;51.034;3.742;2022-09-20T15:28:14;4.80;;;1.20;;
34019;SDS011;20895;51.034;3.742;2022-09-20T15:30:41;3.78;;;1.02;;
34019;SDS011;20895;51.034;3.742;2022-09-20T15:33:07;1.77;;;1.35;;
34019;SDS011;20895;51.034;3.742;2022-09-20T15:35:32;1.92;;;0.55;;
34019;SDS011;20895;51.034;3.742;2022-09-20T15:37:57;0.95;;;0.68;;
34019;SDS011;20895;51.034;3.742;2022-09-20T15:40:22;3.88;;;0.90;;
34019;SDS011;20895;51.034;3.742;2022-09-20T15:42:53;4.15;;;0.70;;
34019;SDS011;20895;51.034;3.742;2022-09-20T15:45:18;4.57;;;0.80;;
34019;SDS011;20895;51.034;3.742;2022-09-20T15:47:45;4.00;;;1.02;;
34019;SDS011;20895;51.034;3.742;2022-09-20T15:50:10;1.27;;;0.60;;
34019;SDS011;20895;51.034;3.742;2022-09-20T15:52:36;4.78;;;1.17;;
34019;SDS011;20895;51.034;3.742;2022-09-20T15:55:04;4.07;;;1.42;;
34019;SDS011;20895;51.034;3.742;2022-09-20T15:57:30;3.72;;;1.55;;
34019;SDS011;20895;51.034;3.742;2022-09-20T15:59:55;6.38;;;1.65;;
34019;SDS011;20895;51.034;3.742;2022-09-20T16:02:22;4.30;;;1.40;;
34019;SDS011;20895;51.034;3.742;2022-09-20T16:04:48;5.00;;;1.70;;
34019;SDS011;20895;51.034;3.742;2022-09-20T16:07:15;5.00;;;1.60;;
34019;SDS011;20895;51.034;3.742;2022-09-20T16:09:41;5.53;;;1.90;;
34019;SDS011;20895;51.034;3.742;2022-09-20T16:12:07;2.80;;;1.63;;
34019;SDS011;20895;51.034;3.742;2022-09-20T16:14:33;5.45;;;1.88;;
34019;SDS011;20895;51.034;3.742;2022-09-20T16:16:58;6.28;;;1.98;;
34019;SDS011;20895;51.034;3.742;2022-09-20T16:19:23;2.80;;;1.80;;
34019;SDS011;20895;51.034;3.742;2022-09-20T16:21:51;5.07;;;2.03;;
34019;SDS011;20895;51.034;3.742;2022-09-20T16:24:18;8.18;;;1.77;;
34019;SDS011;20895;51.034;3.742;2022-09-20T16:26:46;8.60;;;2.42;;
34019;SDS011;20895;51.034;3.742;2022-09-20T16:29:11;6.50;;;2.20;;
34019;SDS011;20895;51.034;3.742;2022-09-20T16:31:37;6.20;;;2.00;;
34019;SDS011;20895;51.034;3.742;2022-09-20T16:36:34;6.15;;;1.58;;
34019;SDS011;20895;51.034;3.742;2022-09-20T16:39:00;7.82;;;1.80;;
34019;SDS011;20895;51.034;3.742;2022-09-20T16:41:26;10.23;;;2.22;;
34019;SDS011;20895;51.034;3.742;2022-09-20T16:43:52;3.55;;;1.77;;
34019;SDS011;20895;51.034;3.742;2022-09-20T16:46:18;7.55;;;1.92;;
34019;SDS011;20895;51.034;3.742;2022-09-20T16:48:44;8.63;;;1.90;;
34019;SDS011;20895;51.034;3.742;2022-09-20T16:51:11;5.93;;;1.67;;
34019;SDS011;20895;51.034;3.742;2022-09-20T16:53:36;3.92;;;1.80;;
34019;SDS011;20895;51.034;3.742;2022-09-20T16:56:01;7.95;;;2.08;;
34019;SDS011;20895;51.034;3.742;2022-09-20T16:58:28;6.97;;;2.10;;
34019;SDS011;20895;51.034;3.742;2022-09-20T17:01:04;5.03;;;1.50;;
34019;SDS011;20895;51.034;3.742;2022-09-20T17:03:29;5.70;;;1.52;;
34019;SDS011;20895;51.034;3.742;2022-09-20T17:06:02;4.85;;;1.88;;
34019;SDS011;20895;51.034;3.742;2022-09-20T17:08:27;5.57;;;1.63;;
34019;SDS011;20895;51.034;3.742;2022-09-20T17:10:56;7.63;;;1.83;;
34019;SDS011;20895;51.034;3.742;2022-09-20T17:13:22;12.75;;;2.65;;
34019;SDS011;20895;51.034;3.742;2022-09-20T17:15:58;5.03;;;1.85;;
34019;SDS011;20895;51.034;3.742;2022-09-20T17:18:23;4.65;;;1.88;;
34019;SDS011;20895;51.034;3.742;2022-09-20T17:20:48;7.70;;;2.85;;
34019;SDS011;20895;51.034;3.742;2022-09-20T17:23:13;7.03;;;2.15;;
34019;SDS011;20895;51.034;3.742;2022-09-20T17:25:39;6.90;;;1.90;;
34019;SDS011;20895;51.034;3.742;2022-09-20T17:28:07;6.30;;;1.90;;
34019;SDS011;20895;51.034;3.742;2022-09-20T17:30:33;7.18;;;2.13;;
34019;SDS011;20895;51.034;3.742;2022-09-20T17:32:58;10.27;;;2.47;;
34019;SDS011;20895;51.034;3.742;2022-09-20T17:35:24;9.70;;;2.40;;
34019;SDS011;20895;51.034;3.742;2022-09-20T17:37:49;7.88;;;3.33;;
34019;SDS011;20895;51.034;3.742;2022-09-20T17:40:14;7.55;;;2.30;;
34019;SDS011;20895;51.034;3.742;2022-09-20T17:42:40;6.43;;;1.95;;
34019;SDS011;20895;51.034;3.742;2022-09-20T17:45:07;7.15;;;2.00;;
34019;SDS011;20895;51.034;3.742;2022-09-20T17:47:33;6.22;;;2.85;;
34019;SDS011;20895;51.034;3.742;2022-09-20T17:49:58;10.60;;;3.33;;
34019;SDS011;20895;51.034;3.742;2022-09-20T17:52:23;10.35;;;3.70;;
34019;SDS011;20895;51.034;3.742;2022-09-20T17:54:48;7.60;;;3.20;;
34019;SDS011;20895;51.034;3.742;2022-09-20T17:57:14;5.30;;;2.00;;
34019;SDS011;20895;51.034;3.742;2022-09-20T17:59:39;7.85;;;2.65;;
34019;SDS011;20895;51.034;3.742;2022-09-20T18:02:04;5.03;;;1.80;;
34019;SDS011;20895;51.034;3.742;2022-09-20T18:04:29;5.30;;;1.90;;
34019;SDS011;20895;51.034;3.742;2022-09-20T18:06:54;7.38;;;2.50;;
34019;SDS011;20895;51.034;3.742;2022-09-20T18:09:21;8.20;;;2.53;;
34019;SDS011;20895;51.034;3.742;2022-09-20T18:11:47;5.45;;;2.38;;
34019;SDS011;20895;51.034;3.742;2022-09-20T18:14:13;12.05;;;3.53;;
34019;SDS011;20895;51.034;3.742;2022-09-20T18:16:39;11.02;;;4.35;;
34019;SDS011;20895;51.034;3.742;2022-09-20T18:19:06;10.13;;;2.70;;
34019;SDS011;20895;51.034;3.742;2022-09-20T18:21:31;10.38;;;3.58;;
34019;SDS011;20895;51.034;3.742;2022-09-20T18:23:58;8.10;;;3.50;;
34019;SDS011;20895;51.034;3.742;2022-09-20T18:26:24;6.95;;;2.67;;
34019;SDS011;20895;51.034;3.742;2022-09-20T18:28:50;6.25;;;2.35;;
34019;SDS011;20895;51.034;3.742;2022-09-20T18:31:16;11.45;;;2.75;;
34019;SDS011;20895;51.034;3.742;2022-09-20T18:33:41;11.57;;;2.47;;
34019;SDS011;20895;51.034;3.742;2022-09-20T18:36:07;4.82;;;2.65;;
34019;SDS011;20895;51.034;3.742;2022-09-20T18:38:32;7.20;;;2.72;;
34019;SDS011;20895;51.034;3.742;2022-09-20T18:40:58;9.57;;;2.85;;
34019;SDS011;20895;51.034;3.742;2022-09-20T18:43:33;9.25;;;3.38;;
34019;SDS011;20895;51.034;3.742;2022-09-20T18:45:59;10.40;;;3.42;;
34019;SDS011;20895;51.034;3.742;2022-09-20T18:48:25;9.50;;;5.47;;
34019;SDS011;20895;51.034;3.742;2022-09-20T18:50:54;9.00;;;3.67;;
34019;SDS011;20895;51.034;3.742;2022-09-20T18:53:20;10.75;;;4.75;;
34019;SDS011;20895;51.034;3.742;2022-09-20T18:55:45;13.20;;;9.02;;
34019;SDS011;20895;51.034;3.742;2022-09-20T18:58:10;6.82;;;4.00;;
34019;SDS011;20895;51.034;3.742;2022-09-20T19:00:36;8.00;;;3.40;;
34019;SDS011;20895;51.034;3.742;2022-09-20T19:03:01;8.70;;;3.45;;
34019;SDS011;20895;51.034;3.742;2022-09-20T19:05:46;8.35;;;4.55;;
34019;SDS011;20895;51.034;3.742;2022-09-20T19:10:55;11.07;;;4.55;;
34019;SDS011;20895;51.034;3.742;2022-09-20T19:26:32;56.33;;;37.25;;
34019;SDS011;20895;51.034;3.742;2022-09-20T19:31:40;23.98;;;15.38;;
34019;SDS011;20895;51.034;3.742;2022-09-20T19:34:06;30.35;;;16.70;;
34019;SDS011;20895;51.034;3.742;2022-09-20T19:39:06;12.63;;;7.57;;
34019;SDS011;20895;51.034;3.742;2022-09-20T19:52:15;13.13;;;6.45;;
34019;SDS011;20895;51.034;3.742;2022-09-20T19:54:41;10.45;;;5.88;;
34019;SDS011;20895;51.034;3.742;2022-09-20T19:57:11;11.55;;;5.75;;
34019;SDS011;20895;51.034;3.742;2022-09-20T19:59:40;9.73;;;5.28;;
34019;SDS011;20895;51.034;3.742;2022-09-20T20:02:07;10.18;;;5.45;;
34019;SDS011;20895;51.034;3.742;2022-09-20T20:04:33;13.35;;;5.45;;
34019;SDS011;20895;51.034;3.742;2022-09-20T20:18:15;11.95;;;4.68;;
34019;SDS011;20895;51.034;3.742;2022-09-20T20:25:34;10.70;;;5.10;;
34019;SDS011;20895;51.034;3.742;2022-09-20T20:28:01;12.20;;;5.65;;
34019;SDS011;20895;51.034;3.742;2022-09-20T20:30:26;9.50;;;4.97;;
34019;SDS011;20895;51.034;3.742;2022-09-20T20:32:55;11.32;;;5.63;;
34019;SDS011;20895;51.034;3.742;2022-09-20T20:35:23;9.38;;;4.90;;
34019;SDS011;20895;51.034;3.742;2022-09-20T20:37:49;10.98;;;4.78;;
34019;SDS011;20895;51.034;3.742;2022-09-20T20:40:14;8.90;;;5.47;;
34019;SDS011;20895;51.034;3.742;2022-09-20T20:42:40;14.35;;;6.93;;
34019;SDS011;20895;51.034;3.742;2022-09-20T20:45:07;12.25;;;6.72;;
34019;SDS011;20895;51.034;3.742;2022-09-20T20:47:32;10.02;;;5.90;;